sensor_id;sensor_type;location;lat;lon;timestamp;P1;durP1;ratioP1;P2;durP2;ratioP2
15553;SDS011;7878;44.632;10.942;2023-07-09T00:00:06;9.02;;;6.63;;
15553;SDS011;7878;44.632;10.942;2023-07-09T00:02:39;11.35;;;6.68;;
15553;SDS011;7878;44.632;10.942;2023-07-09T00:05:04;11.35;;;6.97;;
15553;SDS011;7878;44.632;10.942;2023-07-09T00:07:31;8.30;;;6.40;;
15553;SDS011;7878;44.632;10.942;2023-07-09T00:09:58;8.90;;;7.00;;
15553;SDS011;7878;44.632;10.942;2023-07-09T00:12:25;13.25;;;7.30;;
15553;SDS011;7878;44.632;10.942;2023-07-09T00:14:51;8.05;;;7.20;;
15553;SDS011;7878;44.632;10.942;2023-07-09T00:17:29;11.00;;;7.20;;
15553;SDS011;7878;44.632;10.942;2023-07-09T00:19:58;9.77;;;6.72;;
15553;SDS011;7878;44.632;10.942;2023-07-09T00:22:24;8.00;;;6.47;;
15553;SDS011;7878;44.632;10.942;2023-07-09T00:24:52;10.43;;;7.13;;
15553;SDS011;7878;44.632;10.942;2023-07-09T00:27:21;10.40;;;6.90;;
15553;SDS011;7878;44.632;10.942;2023-07-09T00:29:50;11.00;;;7.18;;
15553;SDS011;7878;44.632;10.942;2023-07-09T00:32:18;12.45;;;6.97;;
15553;SDS011;7878;44.632;10.942;2023-07-09T00:34:50;11.32;;;6.20;;
15553;SDS011;7878;44.632;10.942;2023-07-09T00:37:18;11.52;;;6.80;;
15553;SDS011;7878;44.632;10.942;2023-07-09T00:39:46;11.25;;;7.22;;
15553;SDS011;7878;44.632;10.942;2023-07-09T00:42:13;7.13;;;6.35;;
15553;SDS011;7878;44.632;10.942;2023-07-09T00:44:42;12.57;;;6.40;;
15553;SDS011;7878;44.632;10.942;2023-07-09T00:49:43;10.70;;;5.88;;
15553;SDS011;7878;44.632;10.942;2023-07-09T00:52:55;12.38;;;7.25;;
15553;SDS011;7878;44.632;10.942;2023-07-09T00:55:17;9.77;;;6.65;;
15553;SDS011;7878;44.632;10.942;2023-07-09T00:57:47;11.10;;;7.45;;
15553;SDS011;7878;44.632;10.942;2023-07-09T01:00:21;12.20;;;6.18;;
15553;SDS011;7878;44.632;10.942;2023-07-09T01:02:52;11.00;;;6.90;;
15553;SDS011;7878;44.632;10.942;2023-07-09T01:05:18;7.82;;;6.50;;
15553;SDS011;7878;44.632;10.942;2023-07-09T01:07:45;11.07;;;7.68;;
15553;SDS011;7878;44.632;10.942;2023-07-09T01:10:14;12.70;;;6.63;;
15553;SDS011;7878;44.632;10.942;2023-07-09T01:12:41;10.77;;;7.13;;
15553;SDS011;7878;44.632;10.942;2023-07-09T01:15:07;11.85;;;7.05;;
15553;SDS011;7878;44.632;10.942;2023-07-09T01:17:33;8.75;;;6.88;;
15553;SDS011;7878;44.632;10.942;2023-07-09T01:19:59;6.80;;;6.10;;
15553;SDS011;7878;44.632;10.942;2023-07-09T01:22:25;9.90;;;7.43;;
15553;SDS011;7878;44.632;10.942;2023-07-09T01:25:00;7.53;;;6.35;;
15553;SDS011;7878;44.632;10.942;2023-07-09T01:27:32;9.77;;;6.30;;
15553;SDS011;7878;44.632;10.942;2023-07-09T01:29:58;9.52;;;5.95;;
15553;SDS011;7878;44.632;10.942;2023-07-09T01:32:25;12.23;;;7.38;;
15553;SDS011;7878;44.632;10.942;2023-07-09T01:34:52;9.68;;;7.07;;
15553;SDS011;7878;44.632;10.942;2023-07-09T01:37:21;9.68;;;6.35;;
15553;SDS011;7878;44.632;10.942;2023-07-09T01:39:49;10.25;;;6.85;;
15553;SDS011;7878;44.632;10.942;2023-07-09T01:42:16;7.65;;;6.38;;
15553;SDS011;7878;44.632;10.942;2023-07-09T01:44:43;7.43;;;6.47;;
15553;SDS011;7878;44.632;10.942;2023-07-09T01:47:11;13.02;;;6.80;;
15553;SDS011;7878;44.632;10.942;2023-07-09T01:49:37;9.98;;;7.00;;
15553;SDS011;7878;44.632;10.942;2023-07-09T01:52:05;12.05;;;6.97;;
15553;SDS011;7878;44.632;10.942;2023-07-09T01:54:33;9.98;;;6.60;;
15553;SDS011;7878;44.632;10.942;2023-07-09T02:00:00;13.38;;;6.45;;
15553;SDS011;7878;44.632;10.942;2023-07-09T02:02:34;10.88;;;6.78;;
15553;SDS011;7878;44.632;10.942;2023-07-09T02:05:01;8.00;;;6.07;;
15553;SDS011;7878;44.632;10.942;2023-07-09T02:07:26;10.40;;;6.55;;
15553;SDS011;7878;44.632;10.942;2023-07-09T02:09:52;7.43;;;6.05;;
15553;SDS011;7878;44.632;10.942;2023-07-09T02:12:18;10.80;;;6.53;;
15553;SDS011;7878;44.632;10.942;2023-07-09T02:14:44;9.88;;;7.45;;
15553;SDS011;7878;44.632;10.942;2023-07-09T02:17:11;10.35;;;6.40;;
15553;SDS011;7878;44.632;10.942;2023-07-09T02:19:39;11.57;;;7.43;;
15553;SDS011;7878;44.632;10.942;2023-07-09T02:22:05;8.48;;;6.60;;
15553;SDS011;7878;44.632;10.942;2023-07-09T02:24:32;10.88;;;6.97;;
15553;SDS011;7878;44.632;10.942;2023-07-09T02:26:58;8.82;;;6.47;;
15553;SDS011;7878;44.632;10.942;2023-07-09T02:29:26;14.13;;;6.90;;
15553;SDS011;7878;44.632;10.942;2023-07-09T02:31:52;7.72;;;6.43;;
15553;SDS011;7878;44.632;10.942;2023-07-09T02:34:20;8.95;;;6.30;;
15553;SDS011;7878;44.632;10.942;2023-07-09T02:36:50;6.47;;;5.45;;
15553;SDS011;7878;44.632;10.942;2023-07-09T02:39:17;7.13;;;6.28;;
15553;SDS011;7878;44.632;10.942;2023-07-09T02:41:43;10.52;;;6.50;;
15553;SDS011;7878;44.632;10.942;2023-07-09T02:44:08;8.63;;;6.53;;
15553;SDS011;7878;44.632;10.942;2023-07-09T02:46:34;11.63;;;6.95;;
15553;SDS011;7878;44.632;10.942;2023-07-09T02:49:01;9.98;;;5.95;;
15553;SDS011;7878;44.632;10.942;2023-07-09T02:51:30;9.02;;;6.45;;
15553;SDS011;7878;44.632;10.942;2023-07-09T02:53:57;13.02;;;6.43;;
15553;SDS011;7878;44.632;10.942;2023-07-09T02:56:25;8.60;;;6.32;;
15553;SDS011;7878;44.632;10.942;2023-07-09T02:58:51;8.32;;;6.63;;
15553;SDS011;7878;44.632;10.942;2023-07-09T03:01:17;9.98;;;6.30;;
15553;SDS011;7878;44.632;10.942;2023-07-09T03:03:46;9.65;;;7.57;;
15553;SDS011;7878;44.632;10.942;2023-07-09T03:06:12;10.05;;;6.38;;
15553;SDS011;7878;44.632;10.942;2023-07-09T03:08:38;10.23;;;6.30;;
15553;SDS011;7878;44.632;10.942;2023-07-09T03:11:10;9.30;;;5.75;;
15553;SDS011;7878;44.632;10.942;2023-07-09T03:13:37;10.38;;;6.60;;
15553;SDS011;7878;44.632;10.942;2023-07-09T03:16:03;14.05;;;6.25;;
15553;SDS011;7878;44.632;10.942;2023-07-09T03:18:28;10.18;;;6.50;;
15553;SDS011;7878;44.632;10.942;2023-07-09T03:20:54;8.30;;;6.00;;
15553;SDS011;7878;44.632;10.942;2023-07-09T03:23:20;9.40;;;6.18;;
15553;SDS011;7878;44.632;10.942;2023-07-09T03:25:46;8.90;;;6.68;;
15553;SDS011;7878;44.632;10.942;2023-07-09T03:28:12;8.90;;;6.57;;
15553;SDS011;7878;44.632;10.942;2023-07-09T03:30:41;11.30;;;7.00;;
15553;SDS011;7878;44.632;10.942;2023-07-09T03:33:09;9.07;;;6.60;;
15553;SDS011;7878;44.632;10.942;2023-07-09T03:35:36;7.32;;;6.53;;
15553;SDS011;7878;44.632;10.942;2023-07-09T03:38:03;10.50;;;6.75;;
15553;SDS011;7878;44.632;10.942;2023-07-09T03:40:30;9.50;;;7.60;;
15553;SDS011;7878;44.632;10.942;2023-07-09T03:42:55;30.05;;;7.30;;
15553;SDS011;7878;44.632;10.942;2023-07-09T03:45:21;12.18;;;7.03;;
15553;SDS011;7878;44.632;10.942;2023-07-09T03:47:47;7.25;;;6.53;;
15553;SDS011;7878;44.632;10.942;2023-07-09T03:50:13;10.75;;;7.15;;
15553;SDS011;7878;44.632;10.942;2023-07-09T03:52:38;11.77;;;6.68;;
15553;SDS011;7878;44.632;10.942;2023-07-09T03:55:04;9.15;;;7.10;;
15553;SDS011;7878;44.632;10.942;2023-07-09T03:57:30;9.85;;;7.43;;
15553;SDS011;7878;44.632;10.942;2023-07-09T03:59:56;10.30;;;6.82;;
15553;SDS011;7878;44.632;10.942;2023-07-09T04:02:22;9.43;;;7.28;;
15553;SDS011;7878;44.632;10.942;2023-07-09T04:04:47;8.20;;;6.70;;
15553;SDS011;7878;44.632;10.942;2023-07-09T04:07:14;8.90;;;6.97;;
15553;SDS011;7878;44.632;10.942;2023-07-09T04:09:39;11.43;;;7.10;;
15553;SDS011;7878;44.632;10.942;2023-07-09T04:12:05;9.00;;;7.10;;
15553;SDS011;7878;44.632;10.942;2023-07-09T04:14:32;9.85;;;7.35;;
15553;SDS011;7878;44.632;10.942;2023-07-09T04:16:57;15.38;;;7.50;;
15553;SDS011;7878;44.632;10.942;2023-07-09T04:19:23;9.98;;;7.03;;
15553;SDS011;7878;44.632;10.942;2023-07-09T04:21:49;9.30;;;6.72;;
15553;SDS011;7878;44.632;10.942;2023-07-09T04:24:18;9.38;;;7.18;;
15553;SDS011;7878;44.632;10.942;2023-07-09T04:26:44;10.50;;;6.95;;
15553;SDS011;7878;44.632;10.942;2023-07-09T04:29:11;13.07;;;7.70;;
15553;SDS011;7878;44.632;10.942;2023-07-09T04:31:37;11.10;;;7.47;;
15553;SDS011;7878;44.632;10.942;2023-07-09T04:34:03;11.60;;;8.05;;
15553;SDS011;7878;44.632;10.942;2023-07-09T04:36:29;10.38;;;7.13;;
15553;SDS011;7878;44.632;10.942;2023-07-09T04:38:56;11.80;;;7.43;;
15553;SDS011;7878;44.632;10.942;2023-07-09T04:41:21;12.13;;;7.45;;
15553;SDS011;7878;44.632;10.942;2023-07-09T04:43:47;9.98;;;7.78;;
15553;SDS011;7878;44.632;10.942;2023-07-09T04:46:13;10.90;;;7.35;;
15553;SDS011;7878;44.632;10.942;2023-07-09T04:48:39;12.77;;;8.13;;
15553;SDS011;7878;44.632;10.942;2023-07-09T04:51:05;8.77;;;7.88;;
15553;SDS011;7878;44.632;10.942;2023-07-09T04:53:30;7.90;;;7.07;;
15553;SDS011;7878;44.632;10.942;2023-07-09T04:55:56;10.27;;;7.30;;
15553;SDS011;7878;44.632;10.942;2023-07-09T04:58:22;13.52;;;7.63;;
15553;SDS011;7878;44.632;10.942;2023-07-09T05:00:48;11.02;;;7.63;;
15553;SDS011;7878;44.632;10.942;2023-07-09T05:03:15;8.65;;;7.65;;
15553;SDS011;7878;44.632;10.942;2023-07-09T05:05:45;10.55;;;7.72;;
15553;SDS011;7878;44.632;10.942;2023-07-09T05:08:14;13.57;;;7.95;;
15553;SDS011;7878;44.632;10.942;2023-07-09T05:10:48;11.25;;;8.20;;
15553;SDS011;7878;44.632;10.942;2023-07-09T05:13:15;14.07;;;7.78;;
15553;SDS011;7878;44.632;10.942;2023-07-09T05:15:43;13.70;;;8.35;;
15553;SDS011;7878;44.632;10.942;2023-07-09T05:18:11;11.50;;;8.90;;
15553;SDS011;7878;44.632;10.942;2023-07-09T05:20:38;11.90;;;8.32;;
15553;SDS011;7878;44.632;10.942;2023-07-09T05:23:04;15.55;;;8.52;;
15553;SDS011;7878;44.632;10.942;2023-07-09T05:25:29;10.80;;;7.88;;
15553;SDS011;7878;44.632;10.942;2023-07-09T05:27:55;8.50;;;7.22;;
15553;SDS011;7878;44.632;10.942;2023-07-09T05:30:21;10.43;;;7.57;;
15553;SDS011;7878;44.632;10.942;2023-07-09T05:32:47;8.93;;;6.95;;
15553;SDS011;7878;44.632;10.942;2023-07-09T05:35:12;10.43;;;7.38;;
15553;SDS011;7878;44.632;10.942;2023-07-09T05:37:39;10.88;;;7.28;;
15553;SDS011;7878;44.632;10.942;2023-07-09T05:40:05;15.75;;;7.13;;
15553;SDS011;7878;44.632;10.942;2023-07-09T05:42:32;8.80;;;6.78;;
15553;SDS011;7878;44.632;10.942;2023-07-09T05:44:58;12.73;;;7.78;;
15553;SDS011;7878;44.632;10.942;2023-07-09T05:47:24;9.18;;;7.25;;
15553;SDS011;7878;44.632;10.942;2023-07-09T05:49:50;13.43;;;7.18;;
15553;SDS011;7878;44.632;10.942;2023-07-09T05:52:16;19.80;;;7.45;;
15553;SDS011;7878;44.632;10.942;2023-07-09T05:54:42;11.15;;;6.97;;
15553;SDS011;7878;44.632;10.942;2023-07-09T05:57:09;14.65;;;7.50;;
15553;SDS011;7878;44.632;10.942;2023-07-09T05:59:35;15.00;;;7.93;;
15553;SDS011;7878;44.632;10.942;2023-07-09T06:02:00;13.98;;;8.60;;
15553;SDS011;7878;44.632;10.942;2023-07-09T06:04:27;13.23;;;8.27;;
15553;SDS011;7878;44.632;10.942;2023-07-09T06:06:54;10.20;;;7.35;;
15553;SDS011;7878;44.632;10.942;2023-07-09T06:09:20;10.60;;;7.47;;
15553;SDS011;7878;44.632;10.942;2023-07-09T06:11:45;11.88;;;7.65;;
15553;SDS011;7878;44.632;10.942;2023-07-09T06:14:11;11.23;;;8.05;;
15553;SDS011;7878;44.632;10.942;2023-07-09T06:16:37;13.93;;;7.38;;
15553;SDS011;7878;44.632;10.942;2023-07-09T06:19:03;12.35;;;7.25;;
15553;SDS011;7878;44.632;10.942;2023-07-09T06:21:28;11.55;;;7.53;;
15553;SDS011;7878;44.632;10.942;2023-07-09T06:23:54;8.98;;;6.97;;
15553;SDS011;7878;44.632;10.942;2023-07-09T06:26:20;11.73;;;7.85;;
15553;SDS011;7878;44.632;10.942;2023-07-09T06:28:46;14.32;;;8.05;;
15553;SDS011;7878;44.632;10.942;2023-07-09T06:31:11;13.82;;;8.23;;
15553;SDS011;7878;44.632;10.942;2023-07-09T06:33:37;11.07;;;7.60;;
15553;SDS011;7878;44.632;10.942;2023-07-09T06:36:03;15.10;;;7.55;;
15553;SDS011;7878;44.632;10.942;2023-07-09T06:38:29;11.40;;;7.18;;
15553;SDS011;7878;44.632;10.942;2023-07-09T06:40:56;11.73;;;8.02;;
15553;SDS011;7878;44.632;10.942;2023-07-09T06:43:22;15.57;;;7.75;;
15553;SDS011;7878;44.632;10.942;2023-07-09T06:45:55;10.70;;;7.13;;
15553;SDS011;7878;44.632;10.942;2023-07-09T06:48:22;9.10;;;7.60;;
15553;SDS011;7878;44.632;10.942;2023-07-09T06:50:48;11.23;;;6.88;;
15553;SDS011;7878;44.632;10.942;2023-07-09T06:53:15;11.88;;;6.63;;
15553;SDS011;7878;44.632;10.942;2023-07-09T06:55:41;9.43;;;7.30;;
15553;SDS011;7878;44.632;10.942;2023-07-09T06:58:07;8.60;;;7.00;;
15553;SDS011;7878;44.632;10.942;2023-07-09T07:00:33;8.13;;;6.40;;
15553;SDS011;7878;44.632;10.942;2023-07-09T07:03:00;11.95;;;7.50;;
15553;SDS011;7878;44.632;10.942;2023-07-09T07:05:26;13.48;;;6.93;;
15553;SDS011;7878;44.632;10.942;2023-07-09T07:07:52;12.43;;;7.20;;
15553;SDS011;7878;44.632;10.942;2023-07-09T07:10:18;12.98;;;8.00;;
15553;SDS011;7878;44.632;10.942;2023-07-09T07:12:45;15.38;;;7.78;;
15553;SDS011;7878;44.632;10.942;2023-07-09T07:15:13;11.13;;;9.00;;
15553;SDS011;7878;44.632;10.942;2023-07-09T07:17:40;10.13;;;8.68;;
15553;SDS011;7878;44.632;10.942;2023-07-09T07:20:08;10.70;;;7.35;;
15553;SDS011;7878;44.632;10.942;2023-07-09T07:22:36;8.73;;;7.70;;
15553;SDS011;7878;44.632;10.942;2023-07-09T07:25:04;14.90;;;8.90;;
15553;SDS011;7878;44.632;10.942;2023-07-09T07:27:31;16.48;;;9.43;;
15553;SDS011;7878;44.632;10.942;2023-07-09T07:29:57;12.73;;;9.43;;
15553;SDS011;7878;44.632;10.942;2023-07-09T07:32:23;18.42;;;10.60;;
15553;SDS011;7878;44.632;10.942;2023-07-09T07:34:49;13.75;;;9.02;;
15553;SDS011;7878;44.632;10.942;2023-07-09T07:37:15;16.95;;;10.52;;
15553;SDS011;7878;44.632;10.942;2023-07-09T07:39:44;14.30;;;9.95;;
15553;SDS011;7878;44.632;10.942;2023-07-09T07:42:10;14.75;;;9.30;;
15553;SDS011;7878;44.632;10.942;2023-07-09T07:44:36;12.85;;;8.68;;
15553;SDS011;7878;44.632;10.942;2023-07-09T07:47:01;11.80;;;8.75;;
15553;SDS011;7878;44.632;10.942;2023-07-09T07:49:28;15.52;;;9.93;;
15553;SDS011;7878;44.632;10.942;2023-07-09T07:51:54;13.13;;;9.52;;
15553;SDS011;7878;44.632;10.942;2023-07-09T07:54:20;13.07;;;9.70;;
15553;SDS011;7878;44.632;10.942;2023-07-09T07:56:46;13.95;;;10.10;;
15553;SDS011;7878;44.632;10.942;2023-07-09T07:59:12;11.68;;;9.27;;
15553;SDS011;7878;44.632;10.942;2023-07-09T08:01:38;15.25;;;8.77;;
15553;SDS011;7878;44.632;10.942;2023-07-09T08:04:03;14.05;;;9.75;;
15553;SDS011;7878;44.632;10.942;2023-07-09T08:06:30;11.60;;;8.30;;
15553;SDS011;7878;44.632;10.942;2023-07-09T08:08:56;15.82;;;8.57;;
15553;SDS011;7878;44.632;10.942;2023-07-09T08:11:22;14.05;;;9.82;;
15553;SDS011;7878;44.632;10.942;2023-07-09T08:13:49;12.23;;;9.23;;
15553;SDS011;7878;44.632;10.942;2023-07-09T08:16:15;18.42;;;10.93;;
15553;SDS011;7878;44.632;10.942;2023-07-09T08:18:40;15.82;;;10.30;;
15553;SDS011;7878;44.632;10.942;2023-07-09T08:21:06;12.60;;;9.98;;
15553;SDS011;7878;44.632;10.942;2023-07-09T08:23:32;11.23;;;9.25;;
15553;SDS011;7878;44.632;10.942;2023-07-09T08:26:00;16.70;;;10.35;;
15553;SDS011;7878;44.632;10.942;2023-07-09T08:28:27;13.93;;;9.25;;
15553;SDS011;7878;44.632;10.942;2023-07-09T08:30:56;13.75;;;9.65;;
15553;SDS011;7878;44.632;10.942;2023-07-09T08:33:23;11.30;;;9.32;;
15553;SDS011;7878;44.632;10.942;2023-07-09T08:35:49;12.20;;;9.55;;
15553;SDS011;7878;44.632;10.942;2023-07-09T08:38:16;15.60;;;10.27;;
15553;SDS011;7878;44.632;10.942;2023-07-09T08:40:43;12.60;;;9.15;;
15553;SDS011;7878;44.632;10.942;2023-07-09T08:46:27;12.90;;;10.05;;
15553;SDS011;7878;44.632;10.942;2023-07-09T08:49:01;14.95;;;9.95;;
15553;SDS011;7878;44.632;10.942;2023-07-09T08:54:00;12.20;;;8.15;;
15553;SDS011;7878;44.632;10.942;2023-07-09T08:56:27;11.50;;;8.48;;
15553;SDS011;7878;44.632;10.942;2023-07-09T08:58:58;10.35;;;8.80;;
15553;SDS011;7878;44.632;10.942;2023-07-09T09:01:31;14.95;;;10.60;;
15553;SDS011;7878;44.632;10.942;2023-07-09T09:04:13;10.15;;;9.07;;
15553;SDS011;7878;44.632;10.942;2023-07-09T09:06:45;9.98;;;7.75;;
15553;SDS011;7878;44.632;10.942;2023-07-09T09:12:21;13.02;;;7.63;;
15553;SDS011;7878;44.632;10.942;2023-07-09T09:14:58;10.35;;;8.38;;
15553;SDS011;7878;44.632;10.942;2023-07-09T09:17:29;10.55;;;7.60;;
15553;SDS011;7878;44.632;10.942;2023-07-09T09:20:00;10.63;;;8.18;;
15553;SDS011;7878;44.632;10.942;2023-07-09T09:22:31;11.77;;;7.47;;
15553;SDS011;7878;44.632;10.942;2023-07-09T09:25:11;11.52;;;6.60;;
15553;SDS011;7878;44.632;10.942;2023-07-09T09:27:41;9.63;;;7.97;;
15553;SDS011;7878;44.632;10.942;2023-07-09T09:30:11;15.57;;;8.30;;
15553;SDS011;7878;44.632;10.942;2023-07-09T09:32:44;17.67;;;6.93;;
15553;SDS011;7878;44.632;10.942;2023-07-09T09:35:14;13.75;;;7.43;;
15553;SDS011;7878;44.632;10.942;2023-07-09T09:37:53;15.88;;;7.88;;
15553;SDS011;7878;44.632;10.942;2023-07-09T09:40:21;12.23;;;6.68;;
15553;SDS011;7878;44.632;10.942;2023-07-09T09:42:49;10.23;;;6.63;;
15553;SDS011;7878;44.632;10.942;2023-07-09T09:45:17;12.75;;;7.07;;
15553;SDS011;7878;44.632;10.942;2023-07-09T09:47:45;12.65;;;6.82;;
15553;SDS011;7878;44.632;10.942;2023-07-09T09:50:18;9.65;;;7.05;;
15553;SDS011;7878;44.632;10.942;2023-07-09T09:52:46;10.23;;;7.18;;
15553;SDS011;7878;44.632;10.942;2023-07-09T09:55:23;18.65;;;7.72;;
15553;SDS011;7878;44.632;10.942;2023-07-09T09:57:53;7.80;;;6.55;;
15553;SDS011;7878;44.632;10.942;2023-07-09T10:00:22;9.10;;;6.60;;
15553;SDS011;7878;44.632;10.942;2023-07-09T10:02:50;12.00;;;6.35;;
15553;SDS011;7878;44.632;10.942;2023-07-09T10:05:21;11.65;;;6.95;;
15553;SDS011;7878;44.632;10.942;2023-07-09T10:08:00;12.40;;;7.35;;
15553;SDS011;7878;44.632;10.942;2023-07-09T10:10:33;10.32;;;6.43;;
15553;SDS011;7878;44.632;10.942;2023-07-09T10:13:02;12.30;;;6.20;;
15553;SDS011;7878;44.632;10.942;2023-07-09T10:23:47;7.90;;;7.05;;
15553;SDS011;7878;44.632;10.942;2023-07-09T10:29:25;11.20;;;6.78;;
15553;SDS011;7878;44.632;10.942;2023-07-09T10:37:41;9.65;;;7.45;;
15553;SDS011;7878;44.632;10.942;2023-07-09T10:40:17;8.32;;;7.10;;
15553;SDS011;7878;44.632;10.942;2023-07-09T10:42:55;9.32;;;6.80;;
15553;SDS011;7878;44.632;10.942;2023-07-09T10:45:47;8.77;;;6.72;;
15553;SDS011;7878;44.632;10.942;2023-07-09T10:48:17;9.25;;;7.00;;
15553;SDS011;7878;44.632;10.942;2023-07-09T10:50:51;9.98;;;8.07;;
15553;SDS011;7878;44.632;10.942;2023-07-09T10:56:19;12.20;;;7.70;;
15553;SDS011;7878;44.632;10.942;2023-07-09T10:58:53;7.30;;;6.53;;
15553;SDS011;7878;44.632;10.942;2023-07-09T11:01:40;9.88;;;6.90;;
15553;SDS011;7878;44.632;10.942;2023-07-09T11:04:11;22.73;;;7.57;;
15553;SDS011;7878;44.632;10.942;2023-07-09T11:06:52;14.98;;;7.80;;
15553;SDS011;7878;44.632;10.942;2023-07-09T11:09:30;10.15;;;6.85;;
15553;SDS011;7878;44.632;10.942;2023-07-09T11:11:59;7.20;;;6.50;;
15553;SDS011;7878;44.632;10.942;2023-07-09T11:14:40;12.65;;;7.63;;
15553;SDS011;7878;44.632;10.942;2023-07-09T11:17:27;7.97;;;6.70;;
15553;SDS011;7878;44.632;10.942;2023-07-09T11:19:55;9.55;;;7.00;;
15553;SDS011;7878;44.632;10.942;2023-07-09T11:22:25;7.18;;;6.32;;
15553;SDS011;7878;44.632;10.942;2023-07-09T11:27:44;9.80;;;6.55;;
15553;SDS011;7878;44.632;10.942;2023-07-09T11:30:27;13.35;;;7.57;;
15553;SDS011;7878;44.632;10.942;2023-07-09T11:32:58;10.23;;;7.53;;
15553;SDS011;7878;44.632;10.942;2023-07-09T11:35:27;9.60;;;6.25;;
15553;SDS011;7878;44.632;10.942;2023-07-09T11:37:54;8.30;;;7.10;;
15553;SDS011;7878;44.632;10.942;2023-07-09T11:40:23;11.30;;;6.93;;
15553;SDS011;7878;44.632;10.942;2023-07-09T11:42:58;17.83;;;7.60;;
15553;SDS011;7878;44.632;10.942;2023-07-09T11:45:26;12.40;;;7.60;;
15553;SDS011;7878;44.632;10.942;2023-07-09T11:47:57;13.07;;;6.53;;
15553;SDS011;7878;44.632;10.942;2023-07-09T11:50:44;10.32;;;6.85;;
15553;SDS011;7878;44.632;10.942;2023-07-09T11:55:47;9.52;;;6.53;;
15553;SDS011;7878;44.632;10.942;2023-07-09T11:58:14;14.15;;;6.65;;
15553;SDS011;7878;44.632;10.942;2023-07-09T12:03:11;9.30;;;6.40;;
15553;SDS011;7878;44.632;10.942;2023-07-09T12:05:49;10.82;;;6.97;;
15553;SDS011;7878;44.632;10.942;2023-07-09T12:08:16;9.15;;;5.75;;
15553;SDS011;7878;44.632;10.942;2023-07-09T12:10:43;12.00;;;6.80;;
15553;SDS011;7878;44.632;10.942;2023-07-09T12:13:10;12.02;;;7.00;;
15553;SDS011;7878;44.632;10.942;2023-07-09T12:15:38;11.63;;;6.15;;
15553;SDS011;7878;44.632;10.942;2023-07-09T12:18:10;8.95;;;6.50;;
15553;SDS011;7878;44.632;10.942;2023-07-09T12:20:40;6.53;;;5.90;;
15553;SDS011;7878;44.632;10.942;2023-07-09T12:23:26;8.95;;;7.00;;
15553;SDS011;7878;44.632;10.942;2023-07-09T12:25:55;10.63;;;6.55;;
15553;SDS011;7878;44.632;10.942;2023-07-09T12:28:26;11.57;;;5.97;;
15553;SDS011;7878;44.632;10.942;2023-07-09T12:30:53;9.23;;;6.13;;
15553;SDS011;7878;44.632;10.942;2023-07-09T12:33:20;10.07;;;5.97;;
15553;SDS011;7878;44.632;10.942;2023-07-09T12:35:48;19.30;;;5.57;;
15553;SDS011;7878;44.632;10.942;2023-07-09T12:38:19;8.35;;;5.80;;
15553;SDS011;7878;44.632;10.942;2023-07-09T12:40:48;11.27;;;5.82;;
15553;SDS011;7878;44.632;10.942;2023-07-09T12:43:19;7.32;;;6.00;;
15553;SDS011;7878;44.632;10.942;2023-07-09T12:45:53;13.00;;;6.72;;
15553;SDS011;7878;44.632;10.942;2023-07-09T12:48:23;8.25;;;6.72;;
15553;SDS011;7878;44.632;10.942;2023-07-09T12:50:56;10.35;;;6.18;;
15553;SDS011;7878;44.632;10.942;2023-07-09T12:53:23;9.68;;;6.10;;
15553;SDS011;7878;44.632;10.942;2023-07-09T12:55:51;8.43;;;6.55;;
15553;SDS011;7878;44.632;10.942;2023-07-09T12:58:28;11.43;;;6.70;;
15553;SDS011;7878;44.632;10.942;2023-07-09T13:00:56;9.07;;;6.28;;
15553;SDS011;7878;44.632;10.942;2023-07-09T13:03:27;15.40;;;6.00;;
15553;SDS011;7878;44.632;10.942;2023-07-09T13:05:58;10.82;;;6.18;;
15553;SDS011;7878;44.632;10.942;2023-07-09T13:08:25;10.00;;;6.07;;
15553;SDS011;7878;44.632;10.942;2023-07-09T13:10:53;8.98;;;5.70;;
15553;SDS011;7878;44.632;10.942;2023-07-09T13:13:20;8.63;;;6.28;;
15553;SDS011;7878;44.632;10.942;2023-07-09T13:18:26;8.15;;;5.88;;
15553;SDS011;7878;44.632;10.942;2023-07-09T13:20:54;8.57;;;5.72;;
15553;SDS011;7878;44.632;10.942;2023-07-09T13:23:25;11.15;;;6.25;;
15553;SDS011;7878;44.632;10.942;2023-07-09T13:25:52;10.07;;;5.70;;
15553;SDS011;7878;44.632;10.942;2023-07-09T13:28:24;7.15;;;5.47;;
15553;SDS011;7878;44.632;10.942;2023-07-09T13:30:53;9.27;;;6.25;;
15553;SDS011;7878;44.632;10.942;2023-07-09T13:33:33;7.78;;;6.20;;
15553;SDS011;7878;44.632;10.942;2023-07-09T13:35:59;9.07;;;5.78;;
15553;SDS011;7878;44.632;10.942;2023-07-09T13:38:25;14.00;;;6.00;;
15553;SDS011;7878;44.632;10.942;2023-07-09T13:40:53;8.13;;;5.65;;
15553;SDS011;7878;44.632;10.942;2023-07-09T13:43:30;12.32;;;5.82;;
15553;SDS011;7878;44.632;10.942;2023-07-09T13:45:59;11.10;;;5.28;;
15553;SDS011;7878;44.632;10.942;2023-07-09T13:48:29;10.10;;;5.82;;
15553;SDS011;7878;44.632;10.942;2023-07-09T13:50:56;7.30;;;5.63;;
15553;SDS011;7878;44.632;10.942;2023-07-09T13:53:24;7.97;;;5.85;;
15553;SDS011;7878;44.632;10.942;2023-07-09T13:55:52;9.43;;;5.68;;
15553;SDS011;7878;44.632;10.942;2023-07-09T13:58:18;11.18;;;5.70;;
15553;SDS011;7878;44.632;10.942;2023-07-09T14:00:46;8.13;;;5.60;;
15553;SDS011;7878;44.632;10.942;2023-07-09T14:03:21;7.15;;;5.57;;
15553;SDS011;7878;44.632;10.942;2023-07-09T14:05:48;6.05;;;5.45;;
15553;SDS011;7878;44.632;10.942;2023-07-09T14:08:14;8.57;;;5.03;;
15553;SDS011;7878;44.632;10.942;2023-07-09T14:10:41;7.22;;;5.80;;
15553;SDS011;7878;44.632;10.942;2023-07-09T14:13:08;10.10;;;6.57;;
15553;SDS011;7878;44.632;10.942;2023-07-09T14:15:39;13.50;;;6.60;;
15553;SDS011;7878;44.632;10.942;2023-07-09T14:18:05;6.93;;;5.95;;
15553;SDS011;7878;44.632;10.942;2023-07-09T14:20:36;7.57;;;5.72;;
15553;SDS011;7878;44.632;10.942;2023-07-09T14:23:01;16.23;;;5.90;;
15553;SDS011;7878;44.632;10.942;2023-07-09T14:25:27;12.55;;;6.45;;
15553;SDS011;7878;44.632;10.942;2023-07-09T14:27:53;7.65;;;5.75;;
15553;SDS011;7878;44.632;10.942;2023-07-09T14:30:20;6.90;;;6.13;;
15553;SDS011;7878;44.632;10.942;2023-07-09T14:32:49;8.10;;;5.55;;
15553;SDS011;7878;44.632;10.942;2023-07-09T14:35:19;8.18;;;5.40;;
15553;SDS011;7878;44.632;10.942;2023-07-09T14:37:48;9.65;;;5.88;;
15553;SDS011;7878;44.632;10.942;2023-07-09T14:40:16;7.28;;;5.72;;
15553;SDS011;7878;44.632;10.942;2023-07-09T14:42:44;8.32;;;5.38;;
15553;SDS011;7878;44.632;10.942;2023-07-09T14:47:49;8.05;;;5.85;;
15553;SDS011;7878;44.632;10.942;2023-07-09T14:50:17;6.45;;;5.70;;
15553;SDS011;7878;44.632;10.942;2023-07-09T14:52:44;7.30;;;5.05;;
15553;SDS011;7878;44.632;10.942;2023-07-09T14:55:18;10.45;;;5.95;;
15553;SDS011;7878;44.632;10.942;2023-07-09T14:57:45;9.15;;;5.60;;
15553;SDS011;7878;44.632;10.942;2023-07-09T15:00:13;15.25;;;5.47;;
15553;SDS011;7878;44.632;10.942;2023-07-09T15:02:43;9.75;;;6.10;;
15553;SDS011;7878;44.632;10.942;2023-07-09T15:07:44;5.63;;;5.03;;
15553;SDS011;7878;44.632;10.942;2023-07-09T15:10:17;10.18;;;4.85;;
15553;SDS011;7878;44.632;10.942;2023-07-09T15:12:47;11.15;;;5.90;;
15553;SDS011;7878;44.632;10.942;2023-07-09T15:15:15;8.13;;;5.28;;
15553;SDS011;7878;44.632;10.942;2023-07-09T15:18:01;6.72;;;4.90;;
15553;SDS011;7878;44.632;10.942;2023-07-09T15:20:35;9.50;;;5.32;;
15553;SDS011;7878;44.632;10.942;2023-07-09T15:23:02;11.20;;;5.60;;
15553;SDS011;7878;44.632;10.942;2023-07-09T15:25:28;7.25;;;5.60;;
15553;SDS011;7878;44.632;10.942;2023-07-09T15:27:56;6.82;;;5.53;;
15553;SDS011;7878;44.632;10.942;2023-07-09T15:30:26;7.20;;;5.30;;
15553;SDS011;7878;44.632;10.942;2023-07-09T15:32:57;7.63;;;5.13;;
15553;SDS011;7878;44.632;10.942;2023-07-09T15:35:25;14.57;;;6.25;;